Time;durP1;ratioP1;P1;durP2;ratioP2;P2;SDS_P1;SDS_P2;PMS_P1;PMS_P2;Temp;Humidity;BMP_temperature;BMP_pressure;BME280_temperature;BME280_humidity;BME280_pressure;Samples;Min_cycle;Max_cycle;Signal;HPM_P1;HPM_P2
2023/05/16 00:01:43;;;;;;;10.45;2.42;;;11.10;99.90;;;;;;5127171;27;20038;-80
2023/05/16 00:04:12;;;;;;;15.52;3.05;;;8.70;99.90;;;;;;5116908;28;20717;-81
2023/05/16 00:06:38;;;;;;;15.07;2.80;;;8.70;99.90;;;;;;5102198;28;20032;-82
2023/05/16 00:09:03;;;;;;;18.50;2.10;;;9.10;99.90;;;;;;5104295;28;20591;-82
2023/05/16 00:11:29;;;;;;;17.35;2.53;;;10.80;99.90;;;;;;5083568;28;20040;-82
2023/05/16 00:13:55;;;;;;;14.45;1.77;;;8.60;99.90;;;;;;5087336;28;20047;-82
2023/05/16 00:16:21;;;;;;;15.05;2.58;;;8.60;99.90;;;;;;5079839;28;20048;-82
2023/05/16 00:18:47;;;;;;;11.57;2.00;;;8.60;99.90;;;;;;5103947;28;20108;-82
2023/05/16 00:21:13;;;;;;;12.93;2.92;;;8.60;99.90;;;;;;5101035;28;20040;-82
2023/05/16 00:23:41;;;;;;;18.98;2.65;;;8.50;99.90;;;;;;5108243;28;20502;-82
2023/05/16 00:26:08;;;;;;;12.88;1.95;;;8.60;99.90;;;;;;5100952;28;20035;-83
2023/05/16 00:28:36;;;;;;;11.02;1.92;;;8.50;99.90;;;;;;5084413;28;20117;-83
2023/05/16 00:31:07;;;;;;;14.00;2.30;;;10.00;99.90;;;;;;5127006;27;20177;-82
2023/05/16 00:33:34;;;;;;;15.68;2.28;;;8.50;99.90;;;;;;5072925;28;20024;-81
2023/05/16 00:36:00;;;;;;;14.77;2.50;;;8.50;99.90;;;;;;5107581;28;20040;-82
2023/05/16 00:38:26;;;;;;;14.50;2.30;;;8.50;99.90;;;;;;5105191;28;20039;-81
2023/05/16 00:40:54;;;;;;;16.75;2.40;;;8.50;99.90;;;;;;5106749;27;20103;-82
2023/05/16 00:43:21;;;;;;;11.45;1.75;;;8.50;99.90;;;;;;5086060;28;20181;-82
2023/05/16 00:45:46;;;;;;;10.10;1.80;;;8.50;99.90;;;;;;5084980;28;20047;-82
2023/05/16 00:48:14;;;;;;;16.40;3.05;;;8.40;99.90;;;;;;5084527;28;20044;-82
2023/05/16 00:50:49;;;;;;;10.00;1.60;;;10.60;99.90;;;;;;5093210;28;20052;-82
2023/05/16 00:53:15;;;;;;;8.25;2.10;;;9.70;99.90;;;;;;5104202;28;20048;-82
2023/05/16 00:55:42;;;;;;;13.32;1.98;;;8.70;99.90;;;;;;5109658;28;20131;-82
2023/05/16 00:58:08;;;;;;;13.13;1.55;;;8.90;99.90;;;;;;5072424;28;20040;-82
2023/05/16 01:00:35;;;;;;;15.45;2.20;;;8.40;99.90;;;;;;5101480;28;20068;-82
2023/05/16 01:03:00;;;;;;;10.82;1.73;;;8.50;99.90;;;;;;5101809;28;20570;-82
2023/05/16 01:05:27;;;;;;;7.82;2.05;;;8.40;99.90;;;;;;5106619;28;20052;-82
2023/05/16 01:07:53;;;;;;;10.93;2.03;;;8.30;99.90;;;;;;5100872;28;20060;-82
2023/05/16 01:10:20;;;;;;;13.27;1.80;;;8.40;99.90;;;;;;5126501;27;20399;-82
2023/05/16 01:13:10;;;;;;;13.02;2.13;;;8.40;99.90;;;;;;5096193;28;20032;-82
2023/05/16 01:15:48;;;;;;;11.55;1.50;;;8.30;99.90;;;;;;5095629;28;20129;-82
2023/05/16 01:18:37;;;;;;;13.50;2.40;;;9.00;99.90;;;;;;5073487;28;20039;-82
2023/05/16 01:21:15;;;;;;;15.05;2.20;;;8.20;99.90;;;;;;5093626;28;20046;-82
2023/05/16 01:24:08;;;;;;;15.80;1.77;;;8.20;99.90;;;;;;5100514;28;20043;-82
2023/05/16 01:26:35;;;;;;;12.35;1.67;;;8.10;99.90;;;;;;5095777;28;20136;-82
2023/05/16 01:29:11;;;;;;;15.73;2.03;;;8.10;99.90;;;;;;5102949;28;20138;-82
2023/05/16 01:31:37;;;;;;;12.27;2.08;;;8.10;99.90;;;;;;5089879;28;20081;-82
2023/05/16 01:34:03;;;;;;;12.38;1.60;;;9.20;99.90;;;;;;5087032;28;20062;-82
2023/05/16 01:36:41;;;;;;;10.20;1.92;;;9.20;99.90;;;;;;5107865;28;20042;-82
2023/05/16 01:39:26;;;;;;;7.10;1.63;;;9.30;99.90;;;;;;5103702;28;20126;-82
2023/05/16 01:41:54;;;;;;;;;;;8.10;99.90;;;;;;5109073;28;20108;-81
2023/05/16 01:44:44;;;;;;;18.27;2.13;;;10.30;99.90;;;;;;5088502;28;20049;-82
2023/05/16 01:47:15;;;;;;;7.60;1.63;;;8.10;99.90;;;;;;5122632;27;20666;-81
2023/05/16 01:49:57;;;;;;;9.38;1.42;;;8.10;99.90;;;;;;5090251;28;20035;-81
2023/05/16 01:52:50;;;;;;;15.80;2.13;;;10.60;99.90;;;;;;5103307;28;20044;-81
2023/05/16 01:55:43;;;;;;;20.33;2.42;;;8.00;99.90;;;;;;5047262;28;20047;-82
2023/05/16 01:58:10;;;;;;;17.85;3.70;;;9.70;99.90;;;;;;5103475;28;20419;-82
2023/05/16 02:00:35;;;;;;;13.48;2.05;;;10.50;99.90;;;;;;5105382;28;20074;-82
2023/05/16 02:03:01;;;;;;;18.48;2.75;;;8.10;99.90;;;;;;5105665;27;20071;-82
2023/05/16 02:05:27;;;;;;;12.68;1.85;;;10.40;99.90;;;;;;5106469;28;20036;-82
2023/05/16 02:07:53;;;;;;;14.88;2.53;;;7.80;99.90;;;;;;5086911;28;20440;-81
2023/05/16 02:10:19;;;;;;;15.25;2.15;;;9.70;99.90;;;;;;5105577;27;20546;-82
2023/05/16 02:12:44;;;;;;;14.93;2.10;;;8.00;99.90;;;;;;5100721;28;20491;-82
2023/05/16 02:15:10;;;;;;;14.85;1.75;;;10.20;99.90;;;;;;5130815;27;20043;-82
2023/05/16 02:17:36;;;;;;;15.93;2.50;;;10.40;99.90;;;;;;5106685;28;20504;-82
2023/05/16 02:20:05;;;;;;;9.98;2.08;;;6.20;99.90;;;;;;5102694;28;20047;-82
2023/05/16 02:22:33;;;;;;;14.32;1.98;;;8.00;99.90;;;;;;5095099;28;20092;-82
2023/05/16 02:25:00;;;;;;;15.35;2.20;;;8.00;99.90;;;;;;5112846;27;20043;-82
2023/05/16 02:27:26;;;;;;;13.27;2.13;;;10.70;99.90;;;;;;5123836;27;20047;-83
2023/05/16 02:29:51;;;;;;;16.05;3.13;;;9.70;99.90;;;;;;5112284;27;20097;-83
2023/05/16 02:32:17;;;;;;;10.20;2.22;;;8.00;99.90;;;;;;5094071;28;20051;-82
2023/05/16 02:34:42;;;;;;;11.18;1.98;;;9.70;99.90;;;;;;5097769;28;20084;-82
2023/05/16 02:37:08;;;;;;;15.98;2.17;;;7.90;99.90;;;;;;5094022;28;20043;-82
2023/05/16 02:39:34;;;;;;;13.52;1.42;;;10.10;99.90;;;;;;5092148;28;20047;-82
2023/05/16 02:41:59;;;;;;;12.88;1.83;;;7.70;99.90;;;;;;5093454;28;20048;-82
2023/05/16 02:44:25;;;;;;;9.85;2.47;;;7.70;99.90;;;;;;5078404;28;20127;-83
2023/05/16 02:46:50;;;;;;;11.98;2.20;;;7.70;99.90;;;;;;5130855;27;20040;-82
2023/05/16 02:49:16;;;;;;;14.23;2.47;;;7.80;99.90;;;;;;5084467;28;20071;-82
2023/05/16 02:51:45;;;;;;;13.90;1.90;;;7.70;99.90;;;;;;5110654;27;20047;-82
2023/05/16 02:54:11;;;;;;;10.15;2.20;;;7.70;99.90;;;;;;5080825;28;20075;-83
2023/05/16 02:56:38;;;;;;;10.68;1.67;;;9.20;99.90;;;;;;5063543;28;20713;-82
2023/05/16 02:59:04;;;;;;;13.73;2.20;;;7.70;99.90;;;;;;5092829;28;20543;-82
2023/05/16 03:01:29;;;;;;;17.10;2.35;;;9.60;99.90;;;;;;5133133;27;20069;-82
2023/05/16 03:03:56;;;;;;;17.83;2.25;;;5.70;99.90;;;;;;5102465;28;20092;-82
2023/05/16 03:06:21;;;;;;;20.63;2.33;;;8.30;99.90;;;;;;5089644;28;20044;-82
2023/05/16 03:08:50;;;;;;;13.85;1.73;;;7.20;99.90;;;;;;5099701;28;20065;-82
2023/05/16 03:11:20;;;;;;;10.20;1.55;;;7.40;99.90;;;;;;5086195;28;20471;-82
2023/05/16 03:13:47;;;;;;;21.95;2.67;;;5.80;99.90;;;;;;5099209;28;20069;-82
2023/05/16 03:16:15;;;;;;;15.15;2.45;;;7.30;99.90;;;;;;5099256;28;20492;-83
2023/05/16 03:18:42;;;;;;;15.68;2.03;;;7.30;99.90;;;;;;5089230;28;20400;-82
2023/05/16 03:21:07;;;;;;;9.38;2.35;;;7.30;99.90;;;;;;5115344;27;20042;-82
2023/05/16 03:23:33;;;;;;;13.70;1.73;;;8.70;99.90;;;;;;5084467;28;20040;-82
2023/05/16 03:25:59;;;;;;;14.63;2.03;;;9.70;99.90;;;;;;5124336;27;20040;-82
2023/05/16 03:28:26;;;;;;;10.93;1.63;;;7.10;99.90;;;;;;5138519;27;20809;-83
2023/05/16 03:30:51;;;;;;;10.98;1.85;;;7.30;99.90;;;;;;5105047;28;20130;-83
2023/05/16 03:33:17;;;;;;;14.60;1.77;;;7.20;99.90;;;;;;5100721;28;20135;-82
2023/05/16 03:35:44;;;;;;;12.77;2.13;;;9.60;99.90;;;;;;5086274;28;20054;-82
2023/05/16 03:38:10;;;;;;;17.60;2.03;;;7.20;99.90;;;;;;5087878;28;20126;-82
2023/05/16 03:40:36;;;;;;;22.50;2.55;;;7.20;99.90;;;;;;5102840;28;20104;-82
2023/05/16 03:43:02;;;;;;;13.43;2.88;;;8.70;99.90;;;;;;5085973;28;20475;-82
2023/05/16 03:45:31;;;;;;;9.75;1.48;;;7.10;99.90;;;;;;5123497;27;20078;-83
2023/05/16 03:47:57;;;;;;;11.73;2.33;;;7.20;99.90;;;;;;5110905;28;20437;-82
2023/05/16 03:50:23;;;;;;;14.38;1.98;;;7.20;99.90;;;;;;5081022;28;20341;-82
2023/05/16 03:52:48;;;;;;;12.35;2.15;;;7.20;99.90;;;;;;5097816;28;20122;-82
2023/05/16 03:55:14;;;;;;;8.50;1.50;;;7.10;99.90;;;;;;5106588;28;20585;-82
2023/05/16 03:57:42;;;;;;;11.57;1.73;;;7.20;99.90;;;;;;5101783;28;20273;-82
2023/05/16 04:00:10;;;;;;;16.45;1.95;;;9.80;99.90;;;;;;5086092;28;20479;-81
2023/05/16 04:02:35;;;;;;;15.73;2.08;;;7.20;99.90;;;;;;5083076;28;20550;-81
2023/05/16 04:05:02;;;;;;;15.32;2.10;;;9.80;99.90;;;;;;5103509;28;20118;-81
2023/05/16 04:07:33;;;;;;;14.20;1.67;;;8.60;99.90;;;;;;5108975;28;20139;-81
2023/05/16 04:09:59;;;;;;;18.27;2.17;;;9.40;99.90;;;;;;5105920;28;20035;-81
2023/05/16 04:12:25;;;;;;;13.93;1.80;;;7.10;99.90;;;;;;5105250;28;20699;-81
2023/05/16 04:14:50;;;;;;;11.27;2.35;;;9.50;99.90;;;;;;5092145;28;20505;-81
2023/05/16 04:17:16;;;;;;;11.27;2.22;;;7.00;99.90;;;;;;5105412;28;20066;-81
2023/05/16 04:19:42;;;;;;;12.90;2.00;;;9.30;99.90;;;;;;5109110;28;20050;-81
2023/05/16 04:22:07;;;;;;;9.18;1.50;;;6.90;99.90;;;;;;5105399;28;20507;-81
2023/05/16 04:24:33;;;;;;;14.43;2.38;;;8.10;99.90;;;;;;5109621;28;20046;-81
2023/05/16 04:26:59;;;;;;;12.70;1.65;;;7.00;99.90;;;;;;5102227;28;20044;-82
2023/05/16 04:29:25;;;;;;;5.93;1.30;;;7.00;99.90;;;;;;5132449;27;20036;-81
2023/05/16 04:31:50;;;;;;;12.60;2.22;;;7.00;99.90;;;;;;5108692;28;20046;-81
2023/05/16 04:34:16;;;;;;;11.43;1.77;;;7.10;99.90;;;;;;5108201;28;20072;-82
2023/05/16 04:36:42;;;;;;;12.07;2.05;;;8.10;99.90;;;;;;5107244;28;20047;-81
2023/05/16 04:39:08;;;;;;;14.13;1.65;;;9.60;99.90;;;;;;5109396;28;20384;-81
2023/05/16 04:41:34;;;;;;;12.35;2.10;;;7.10;99.90;;;;;;5070919;28;20068;-81
2023/05/16 04:44:03;;;;;;;17.95;2.55;;;8.80;99.90;;;;;;5105749;28;20120;-81
2023/05/16 04:46:29;;;;;;;19.13;1.83;;;9.10;99.90;;;;;;5103959;28;20044;-81
2023/05/16 04:48:54;;;;;;;13.18;2.30;;;7.00;99.90;;;;;;5110473;28;20067;-82
2023/05/16 04:51:20;;;;;;;13.75;1.70;;;7.10;99.90;;;;;;5084449;28;20027;-81
2023/05/16 04:53:46;;;;;;;10.45;2.40;;;6.50;99.90;;;;;;5081836;28;20047;-82
2023/05/16 04:56:12;;;;;;;13.25;2.42;;;;;;;;;;5083054;28;20444;-81
2023/05/16 04:58:38;;;;;;;12.52;1.67;;;7.10;99.90;;;;;;5097752;28;20487;-81
2023/05/16 05:01:04;;;;;;;17.10;1.85;;;9.50;99.90;;;;;;5114273;27;20043;-81
2023/05/16 05:03:29;;;;;;;17.35;1.98;;;7.50;99.90;;;;;;5084434;28;20098;-81
2023/05/16 05:05:55;;;;;;;10.45;1.63;;;6.90;99.90;;;;;;5098452;28;20040;-82
2023/05/16 05:08:21;;;;;;;14.07;1.73;;;6.90;99.90;;;;;;5080696;28;20074;-81
2023/05/16 05:10:47;;;;;;;13.98;1.95;;;7.10;99.90;;;;;;5096456;28;20089;-82
2023/05/16 05:13:12;;;;;;;13.05;2.53;;;6.40;99.90;;;;;;5093000;28;20093;-82
2023/05/16 05:15:38;;;;;;;9.45;1.88;;;6.80;99.90;;;;;;5079762;28;20131;-80
2023/05/16 05:18:04;;;;;;;10.73;1.45;;;8.40;99.90;;;;;;5097970;28;20051;-80
2023/05/16 05:20:30;;;;;;;11.95;2.03;;;7.20;99.90;;;;;;5097638;28;20101;-81
2023/05/16 05:22:55;;;;;;;13.80;1.70;;;7.00;99.90;;;;;;5130635;27;20553;-81
2023/05/16 05:25:21;;;;;;;19.13;3.42;;;9.10;99.90;;;;;;5095307;28;20138;-81
2023/05/16 05:27:48;;;;;;;10.52;1.55;;;7.30;99.90;;;;;;5096975;28;20143;-81
2023/05/16 05:30:14;;;;;;;7.18;1.15;;;7.40;99.90;;;;;;5095235;28;20031;-80
2023/05/16 05:32:42;;;;;;;7.72;1.23;;;7.50;99.90;;;;;;5114408;27;20104;-80
2023/05/16 05:35:08;;;;;;;8.88;1.05;;;10.20;99.90;;;;;;5113728;27;20623;-81
2023/05/16 05:37:34;;;;;;;11.32;1.63;;;8.40;99.90;;;;;;5097649;28;20031;-81
2023/05/16 05:40:00;;;;;;;10.77;1.77;;;7.60;99.90;;;;;;5113517;27;20483;-82
2023/05/16 05:42:25;;;;;;;13.90;2.42;;;9.20;99.90;;;;;;5099984;27;20058;-79
2023/05/16 05:44:51;;;;;;;4.65;1.20;;;10.40;99.90;;;;;;5103591;28;20051;-80
2023/05/16 05:47:17;;;;;;;15.38;1.75;;;8.50;99.90;;;;;;5081810;28;20090;-79
2023/05/16 05:49:43;;;;;;;14.43;1.63;;;8.30;99.90;;;;;;5095940;28;20040;-81
2023/05/16 05:52:08;;;;;;;13.40;3.03;;;10.40;99.90;;;;;;5102829;28;20036;-81
2023/05/16 05:54:34;;;;;;;18.27;4.78;;;8.30;99.90;;;;;;4400090;27;10000649;-82
2023/05/16 05:57:00;;;;;;;16.50;2.08;;;11.00;99.90;;;;;;5105141;28;20044;-82
2023/05/16 05:59:26;;;;;;;12.00;2.22;;;11.00;99.90;;;;;;5141192;27;20056;-82
2023/05/16 06:01:52;;;;;;;12.40;1.73;;;8.20;99.90;;;;;;5142096;27;20042;-83
2023/05/16 06:04:18;;;;;;;12.13;1.52;;;9.00;99.90;;;;;;5106013;28;20031;-83
2023/05/16 06:06:44;;;;;;;16.70;2.60;;;8.30;99.90;;;;;;5108436;27;20031;-82
2023/05/16 06:09:14;;;;;;;14.88;1.92;;;8.40;99.90;;;;;;5135660;27;20034;-81
2023/05/16 06:11:42;;;;;;;11.90;2.22;;;10.90;99.90;;;;;;5088862;28;20105;-81
2023/05/16 06:14:07;;;;;;;12.30;1.60;;;8.60;99.90;;;;;;5095120;28;20062;-80
2023/05/16 06:16:33;;;;;;;15.68;5.72;;;11.20;99.90;;;;;;5096065;28;20478;-81
2023/05/16 06:19:01;;;;;;;10.32;1.83;;;11.30;99.90;;;;;;5129564;27;20047;-79
2023/05/16 06:21:27;;;;;;;11.88;1.95;;;11.30;99.90;;;;;;5124165;27;20144;-80
2023/05/16 06:23:52;;;;;;;4.32;0.88;;;9.10;99.90;;;;;;5113408;27;20498;-80
2023/05/16 06:26:21;;;;;;;3.10;0.65;;;9.20;99.90;;;;;;5110288;27;20052;-80
2023/05/16 06:28:46;;;;;;;6.63;0.73;;;9.20;99.90;;;;;;5075615;28;20498;-79
2023/05/16 06:31:12;;;;;;;5.43;1.55;;;11.50;99.90;;;;;;5088624;28;20089;-80
2023/05/16 06:33:38;;;;;;;7.38;1.02;;;8.80;99.90;;;;;;5078779;28;20126;-80
2023/05/16 06:36:04;;;;;;;4.03;0.52;;;11.60;99.90;;;;;;5083463;28;20035;-80
2023/05/16 06:38:30;;;;;;;6.35;0.63;;;9.20;99.90;;;;;;5092702;28;20035;-79
2023/05/16 06:41:25;;;;;;;6.38;1.08;;;10.30;99.90;;;;;;5134895;27;20126;-81
2023/05/16 06:44:18;;;;;;;5.65;0.57;;;9.30;99.90;;;;;;5141341;22;20065;-82
2023/05/16 06:49:47;;;;;;;8.20;1.10;;;9.40;99.90;;;;;;5070969;23;20053;-80
2023/05/16 06:52:44;;;;;;;6.97;0.68;;;12.20;99.90;;;;;;5021000;28;20046;-81
2023/05/16 06:55:16;;;;;;;10.02;1.00;;;11.70;99.90;;;;;;5031242;28;20022;-81
2023/05/16 06:57:57;;;;;;;11.93;1.40;;;9.50;99.90;;;;;;5016078;28;20551;-79
2023/05/16 07:00:26;;;;;;;5.97;0.90;;;9.40;99.90;;;;;;4992653;28;20408;-79
2023/05/16 07:02:52;;;;;;;7.47;0.80;;;10.10;99.90;;;;;;5006843;28;20544;-80
2023/05/16 07:05:18;;;;;;;9.80;1.25;;;9.50;99.90;;;;;;5022143;28;20697;-80
2023/05/16 07:07:44;;;;;;;7.70;0.70;;;12.10;99.90;;;;;;4984845;28;20046;-80
2023/05/16 07:10:12;;;;;;;8.77;1.45;;;11.90;99.90;;;;;;4988462;28;20034;-81
2023/05/16 07:12:41;;;;;;;4.35;1.13;;;9.60;99.90;;;;;;5005255;28;20072;-80
2023/05/16 07:15:08;;;;;;;9.13;1.25;;;9.60;99.90;;;;;;4997483;28;20049;-80
2023/05/16 07:17:34;;;;;;;9.57;1.42;;;9.70;99.90;;;;;;4991006;28;20057;-79
2023/05/16 07:19:59;;;;;;;8.68;1.25;;;9.70;99.90;;;;;;5000361;28;20046;-80
2023/05/16 07:22:25;;;;;;;9.75;1.13;;;9.80;99.90;;;;;;5000540;28;20400;-80
2023/05/16 07:24:53;;;;;;;11.25;1.13;;;11.70;99.90;;;;;;4987695;28;20481;-80
2023/05/16 07:27:19;;;;;;;12.88;1.50;;;10.10;99.90;;;;;;5000362;28;20045;-81
2023/05/16 07:29:45;;;;;;;11.77;1.48;;;11.60;99.90;;;;;;5000592;28;20491;-81
2023/05/16 07:32:10;;;;;;;9.07;1.50;;;9.90;99.90;;;;;;4999744;28;20049;-80
2023/05/16 07:34:36;;;;;;;10.00;2.08;;;10.00;99.90;;;;;;5002589;28;20044;-79
2023/05/16 07:37:02;;;;;;;13.48;1.73;;;10.00;99.90;;;;;;5011928;28;20034;-79
2023/05/16 07:39:27;;;;;;;10.95;1.67;;;10.40;99.90;;;;;;4999496;28;20046;-77
2023/05/16 07:41:53;;;;;;;13.60;2.38;;;12.10;99.90;;;;;;4999246;28;20038;-78
2023/05/16 07:44:19;;;;;;;11.73;2.20;;;10.10;99.90;;;;;;4996362;28;20054;-78
2023/05/16 07:46:44;;;;;;;15.32;2.85;;;11.50;99.90;;;;;;4987826;28;20048;-77
2023/05/16 07:49:10;;;;;;;9.50;1.83;;;10.20;99.90;;;;;;5005899;28;20058;-77
2023/05/16 07:51:36;;;;;;;11.57;2.08;;;10.40;99.90;;;;;;4991579;28;20054;-78
2023/05/16 07:54:02;;;;;;;11.88;1.67;;;12.20;99.90;;;;;;5004821;28;20041;-79
2023/05/16 07:56:27;;;;;;;10.93;1.20;;;10.50;99.90;;;;;;5004527;28;20046;-79
2023/05/16 07:58:53;;;;;;;7.93;1.45;;;10.50;99.90;;;;;;4997298;28;20081;-78
2023/05/16 08:01:19;;;;;;;11.27;1.45;;;10.50;99.90;;;;;;5004112;28;20034;-78
2023/05/16 08:03:45;;;;;;;9.82;1.75;;;11.80;99.90;;;;;;5006414;28;20103;-79
2023/05/16 08:06:11;;;;;;;10.93;2.03;;;12.60;99.90;;;;;;4966612;28;20042;-79
2023/05/16 08:08:37;;;;;;;12.05;1.27;;;9.40;99.90;;;;;;5003781;28;20135;-78
2023/05/16 08:11:04;;;;;;;11.30;1.38;;;12.30;99.90;;;;;;5000610;28;20053;-79
2023/05/16 08:13:30;;;;;;;8.23;1.77;;;10.40;99.90;;;;;;5002064;28;20052;-79
2023/05/16 08:15:56;;;;;;;7.70;1.30;;;10.40;99.90;;;;;;5003558;28;20077;-79
2023/05/16 08:18:21;;;;;;;13.40;2.25;;;11.30;99.90;;;;;;4989411;28;20088;-80
2023/05/16 08:20:47;;;;;;;10.35;1.92;;;10.50;99.90;;;;;;4989785;28;20121;-79
2023/05/16 08:23:13;;;;;;;8.57;1.65;;;12.80;99.90;;;;;;5008959;28;20054;-79
2023/05/16 08:25:39;;;;;;;8.15;1.05;;;10.60;99.90;;;;;;4999864;28;20129;-76
2023/05/16 08:28:05;;;;;;;7.90;1.20;;;10.70;99.90;;;;;;5006631;28;20616;-79
2023/05/16 08:30:31;;;;;;;9.98;1.52;;;10.70;99.90;;;;;;5010340;28;20121;-79
2023/05/16 08:32:56;;;;;;;14.32;1.65;;;10.80;99.90;;;;;;5004103;28;20481;-78
2023/05/16 08:35:22;;;;;;;11.70;1.35;;;12.90;99.90;;;;;;4990172;28;20049;-78
2023/05/16 08:37:48;;;;;;;10.50;1.10;;;13.50;99.90;;;;;;4991751;28;20057;-78
2023/05/16 08:40:14;;;;;;;10.82;1.55;;;10.80;99.90;;;;;;4987855;28;20038;-79
2023/05/16 08:42:40;;;;;;;8.27;1.52;;;12.40;99.90;;;;;;5004391;28;20103;-77
2023/05/16 08:45:06;;;;;;;6.60;1.30;;;10.90;99.90;;;;;;5003303;28;20132;-79
2023/05/16 08:47:35;;;;;;;6.75;1.17;;;10.90;99.90;;;;;;5005000;28;20038;-79
2023/05/16 08:50:03;;;;;;;6.95;1.45;;;10.90;99.90;;;;;;4989965;28;20072;-79
2023/05/16 08:52:32;;;;;;;9.38;1.08;;;11.10;99.90;;;;;;5007497;28;20383;-79
2023/05/16 08:55:04;;;;;;;10.43;1.42;;;11.10;99.90;;;;;;5001653;28;20117;-79
2023/05/16 08:57:32;;;;;;;6.30;1.73;;;11.40;99.90;;;;;;4998092;28;20113;-79
2023/05/16 08:59:59;;;;;;;10.93;1.50;;;11.10;99.90;;;;;;4999483;28;20121;-79
2023/05/16 09:02:25;;;;;;;4.93;1.25;;;11.20;99.90;;;;;;5002700;28;20042;-78
2023/05/16 09:04:53;;;;;;;8.60;1.35;;;11.30;99.90;;;;;;5001761;28;20103;-79
2023/05/16 09:07:20;;;;;;;14.18;2.20;;;11.30;99.90;;;;;;5004338;28;20057;-79
2023/05/16 09:09:45;;;;;;;14.18;1.55;;;11.30;99.90;;;;;;5002684;28;20045;-80
2023/05/16 09:12:11;;;;;;;8.48;1.27;;;11.20;99.90;;;;;;4997112;28;20398;-79
2023/05/16 09:14:37;;;;;;;11.38;1.65;;;11.30;99.90;;;;;;5002205;28;20035;-80
2023/05/16 09:17:07;;;;;;;6.05;1.10;;;12.90;99.90;;;;;;4985149;28;20046;-79
2023/05/16 09:19:38;;;;;;;8.20;1.58;;;13.00;99.90;;;;;;4986386;28;20037;-79
2023/05/16 09:22:07;;;;;;;7.20;1.30;;;11.40;99.90;;;;;;5000882;28;20034;-79
2023/05/16 09:24:36;;;;;;;7.47;1.33;;;13.50;99.90;;;;;;5000998;28;20104;-80
2023/05/16 09:27:10;;;;;;;11.18;1.02;;;11.40;99.90;;;;;;4985735;28;20047;-81
2023/05/16 09:29:36;;;;;;;7.55;1.42;;;11.50;99.90;;;;;;5007397;28;20041;-80
2023/05/16 09:32:11;;;;;;;13.13;1.80;;;14.30;99.90;;;;;;4986710;28;20112;-79
2023/05/16 09:34:45;;;;;;;10.07;1.33;;;11.80;99.90;;;;;;5003052;28;20045;-78
2023/05/16 09:37:11;;;;;;;9.15;1.80;;;12.40;99.90;;;;;;5013862;28;20383;-78
2023/05/16 09:39:48;;;;;;;10.60;1.30;;;11.70;99.90;;;;;;5000966;28;20115;-79
2023/05/16 09:42:14;;;;;;;8.07;1.10;;;11.70;99.90;;;;;;4999762;28;20064;-78
2023/05/16 09:44:41;;;;;;;7.60;1.48;;;13.30;99.90;;;;;;4970286;28;20045;-77
2023/05/16 09:47:06;;;;;;;8.68;1.58;;;11.50;99.90;;;;;;5001927;28;20127;-79
2023/05/16 09:49:36;;;;;;;10.65;1.67;;;11.50;99.90;;;;;;4992161;28;20065;-77
2023/05/16 09:52:02;;;;;;;10.30;2.20;;;11.60;99.90;;;;;;5002360;28;20046;-78
2023/05/16 09:54:33;;;;;;;7.65;1.80;;;11.70;99.90;;;;;;5001839;28;20027;-78
2023/05/16 09:56:59;;;;;;;7.93;1.33;;;11.80;99.90;;;;;;5000381;28;20045;-79
2023/05/16 09:59:27;;;;;;;7.10;1.00;;;11.80;99.90;;;;;;5000370;28;20049;-78
2023/05/16 10:01:56;;;;;;;10.65;1.55;;;11.90;99.90;;;;;;4982009;28;20046;-79
2023/05/16 10:04:21;;;;;;;10.75;1.20;;;13.00;99.90;;;;;;4999538;28;20521;-78
2023/05/16 10:06:51;;;;;;;5.10;0.70;;;14.00;99.90;;;;;;4996739;28;20041;-78
2023/05/16 10:09:17;;;;;;;8.95;1.73;;;12.00;99.90;;;;;;4998401;28;20038;-78
2023/05/16 10:11:45;;;;;;;9.65;1.58;;;12.00;99.90;;;;;;4996793;28;20084;-78
2023/05/16 10:14:12;;;;;;;5.90;1.15;;;13.00;99.90;;;;;;4997245;28;20054;-78
2023/05/16 10:16:42;;;;;;;11.60;1.02;;;12.20;99.90;;;;;;4998681;28;20057;-78
2023/05/16 10:19:07;;;;;;;6.35;1.08;;;13.30;99.90;;;;;;4982150;28;20042;-78
2023/05/16 10:21:36;;;;;;;13.63;1.20;;;14.30;99.90;;;;;;4984204;28;20050;-78
2023/05/16 10:24:05;;;;;;;9.43;1.30;;;13.30;99.90;;;;;;5002944;28;20379;-78
2023/05/16 10:26:32;;;;;;;7.53;1.02;;;12.20;99.90;;;;;;5000693;28;20512;-78
2023/05/16 10:28:59;;;;;;;15.32;2.95;;;12.30;99.90;;;;;;5008026;28;20394;-78
2023/05/16 10:31:24;;;;;;;16.00;3.22;;;12.30;99.90;;;;;;4999789;28;20069;-78
2023/05/16 10:33:50;;;;;;;13.75;1.45;;;12.50;99.90;;;;;;5002579;28;20478;-78
2023/05/16 10:36:17;;;;;;;15.32;1.60;;;13.80;99.90;;;;;;5009459;28;20057;-77
2023/05/16 10:38:45;;;;;;;5.28;0.85;;;12.80;99.90;;;;;;4988198;28;20048;-79
2023/05/16 10:41:11;;;;;;;6.80;1.23;;;12.70;99.90;;;;;;5005518;28;20042;-78
2023/05/16 10:43:36;;;;;;;5.38;0.95;;;13.90;99.90;;;;;;5000024;28;20081;-77
2023/05/16 10:46:05;;;;;;;5.38;0.93;;;12.80;99.90;;;;;;5001502;28;20036;-79
2023/05/16 10:48:33;;;;;;;6.72;1.48;;;12.70;99.90;;;;;;4985160;28;20049;-78
2023/05/16 10:50:59;;;;;;;9.07;1.27;;;12.80;99.90;;;;;;4992637;28;20502;-77
2023/05/16 10:53:48;;;;;;;7.95;1.08;;;12.90;99.90;;;;;;4999548;28;20038;-78
2023/05/16 10:56:32;;;;;;;5.95;0.82;;;14.50;99.90;;;;;;5005648;28;20433;-78
2023/05/16 10:58:57;;;;;;;5.80;1.25;;;12.80;99.90;;;;;;5004041;28;20049;-78
2023/05/16 11:01:25;;;;;;;7.93;1.20;;;12.80;99.90;;;;;;5009027;28;20108;-79
2023/05/16 11:04:03;;;;;;;9.25;1.00;;;12.90;99.90;;;;;;5003064;28;20089;-79
2023/05/16 11:06:40;;;;;;;9.05;1.10;;;13.00;99.90;;;;;;4995113;28;20042;-79
2023/05/16 11:09:09;;;;;;;6.32;1.42;;;13.00;99.90;;;;;;5004046;28;20048;-79
2023/05/16 11:11:46;;;;;;;10.15;1.67;;;13.20;99.90;;;;;;5005002;28;20335;-79
2023/05/16 11:14:29;;;;;;;6.63;1.02;;;13.30;99.90;;;;;;5005978;28;20156;-77
2023/05/16 11:17:09;;;;;;;8.73;1.10;;;13.60;99.90;;;;;;4987736;28;20548;-77
2023/05/16 11:19:46;;;;;;;9.07;1.80;;;13.40;99.90;;;;;;5003293;28;20042;-77
2023/05/16 11:22:24;;;;;;;5.30;1.58;;;13.40;99.90;;;;;;5002505;28;20045;-78
2023/05/16 11:25:06;;;;;;;4.28;1.25;;;13.30;99.90;;;;;;5002578;28;20078;-78
2023/05/16 11:27:34;;;;;;;4.10;1.05;;;13.20;99.90;;;;;;4997976;28;20034;-79
2023/05/16 11:30:05;;;;;;;6.15;1.45;;;14.50;99.90;;;;;;4998537;28;20104;-78
2023/05/16 11:32:34;;;;;;;10.70;1.40;;;13.20;99.90;;;;;;4990311;28;20445;-79
2023/05/16 11:35:01;;;;;;;7.80;1.55;;;14.60;99.90;;;;;;5006762;28;20081;-79
2023/05/16 11:37:27;;;;;;;8.45;2.38;;;13.10;99.90;;;;;;5001411;28;20038;-78
2023/05/16 11:39:57;;;;;;;15.77;7.05;;;13.10;99.90;;;;;;5002395;28;20046;-79
2023/05/16 11:42:23;;;;;;;8.32;2.10;;;14.00;99.90;;;;;;5004896;28;20441;-77
2023/05/16 11:44:48;;;;;;;9.70;1.75;;;13.10;99.90;;;;;;5007019;28;20050;-78
2023/05/16 11:47:14;;;;;;;10.57;1.60;;;13.30;99.90;;;;;;5000544;28;20034;-78
2023/05/16 11:49:40;;;;;;;6.88;1.65;;;13.90;99.90;;;;;;5006050;28;20649;-78
2023/05/16 11:52:08;;;;;;;3.95;1.48;;;13.50;99.90;;;;;;4997359;28;20058;-78
2023/05/16 11:54:34;;;;;;;8.90;2.28;;;13.50;99.90;;;;;;5003834;28;20060;-79
2023/05/16 11:57:00;;;;;;;6.80;1.58;;;14.60;99.90;;;;;;4983002;28;20490;-79
2023/05/16 11:59:26;;;;;;;5.95;1.55;;;14.30;99.90;;;;;;5008107;28;20050;-78
2023/05/16 12:01:52;;;;;;;6.03;1.50;;;13.90;99.90;;;;;;5001660;28;20375;-78
2023/05/16 12:04:19;;;;;;;6.93;2.00;;;15.60;99.90;;;;;;4973472;28;20481;-79
2023/05/16 12:06:57;;;;;;;6.78;1.60;;;13.70;99.90;;;;;;5000046;28;20401;-78
2023/05/16 12:09:23;;;;;;;6.07;1.42;;;13.60;99.90;;;;;;4985374;28;20034;-77
2023/05/16 12:11:51;;;;;;;12.05;1.70;;;13.70;99.90;;;;;;5004846;28;20064;-78
2023/05/16 12:14:17;;;;;;;11.00;2.25;;;15.30;99.90;;;;;;4998523;28;20038;-79
2023/05/16 12:16:45;;;;;;;7.78;2.38;;;14.00;99.90;;;;;;4982724;28;20053;-79
2023/05/16 12:19:11;;;;;;;10.68;2.45;;;15.20;99.90;;;;;;4996878;28;20056;-79
2023/05/16 12:21:37;;;;;;;8.70;1.60;;;14.80;99.90;;;;;;5007025;28;20037;-79
2023/05/16 12:24:03;;;;;;;7.80;3.30;;;15.10;99.90;;;;;;5009674;28;20120;-79
2023/05/16 12:26:32;;;;;;;6.32;2.50;;;14.00;99.90;;;;;;4998646;28;20041;-79
2023/05/16 12:29:04;;;;;;;6.72;1.92;;;13.90;99.90;;;;;;5003648;28;20044;-80
2023/05/16 12:31:31;;;;;;;5.97;2.13;;;14.30;99.90;;;;;;4992475;28;20125;-80
2023/05/16 12:33:57;;;;;;;7.40;1.58;;;14.40;99.90;;;;;;5008231;28;20046;-79
2023/05/16 12:36:25;;;;;;;6.53;1.50;;;14.40;99.90;;;;;;5010455;28;20050;-79
2023/05/16 12:38:51;;;;;;;7.00;1.92;;;14.40;99.90;;;;;;4986141;28;20469;-80
2023/05/16 12:41:21;;;;;;;5.35;1.80;;;14.50;99.90;;;;;;5001236;28;20045;-80
2023/05/16 12:44:04;;;;;;;5.35;1.85;;;14.40;99.90;;;;;;5001708;28;20073;-79
2023/05/16 12:46:30;;;;;;;10.05;2.50;;;14.10;99.90;;;;;;5008598;28;20632;-80
2023/05/16 12:49:07;;;;;;;9.57;2.13;;;13.90;99.90;;;;;;5001858;28;20042;-80
2023/05/16 12:51:32;;;;;;;6.32;1.70;;;13.90;99.90;;;;;;5001425;28;20122;-80
2023/05/16 12:54:10;;;;;;;7.65;2.55;;;13.90;99.90;;;;;;5006801;28;20464;-79